sensor_id;sensor_type;location;lat;lon;timestamp;P1;durP1;ratioP1;P2;durP2;ratioP2
37847;SDS011;23688;33.130;-117.188;2023-07-22T00:02:23;17.58;;;6.25;;
37847;SDS011;23688;33.130;-117.188;2023-07-22T00:04:52;17.65;;;6.43;;
37847;SDS011;23688;33.130;-117.188;2023-07-22T00:07:19;15.82;;;5.47;;
37847;SDS011;23688;33.130;-117.188;2023-07-22T00:09:45;17.88;;;6.25;;
37847;SDS011;23688;33.130;-117.188;2023-07-22T00:12:11;19.80;;;6.20;;
37847;SDS011;23688;33.130;-117.188;2023-07-22T00:14:41;14.85;;;5.75;;
37847;SDS011;23688;33.130;-117.188;2023-07-22T00:17:07;16.67;;;6.07;;
37847;SDS011;23688;33.130;-117.188;2023-07-22T00:22:02;20.25;;;6.40;;
37847;SDS011;23688;33.130;-117.188;2023-07-22T00:24:28;16.15;;;5.97;;
37847;SDS011;23688;33.130;-117.188;2023-07-22T00:26:54;14.48;;;5.88;;
37847;SDS011;23688;33.130;-117.188;2023-07-22T00:29:21;17.27;;;5.82;;
37847;SDS011;23688;33.130;-117.188;2023-07-22T00:31:47;13.60;;;6.18;;
37847;SDS011;23688;33.130;-117.188;2023-07-22T00:34:14;15.30;;;5.60;;
37847;SDS011;23688;33.130;-117.188;2023-07-22T00:36:41;14.63;;;6.15;;
37847;SDS011;23688;33.130;-117.188;2023-07-22T00:39:09;19.75;;;6.75;;
37847;SDS011;23688;33.130;-117.188;2023-07-22T00:41:37;17.42;;;5.85;;
37847;SDS011;23688;33.130;-117.188;2023-07-22T00:44:03;14.43;;;5.45;;
37847;SDS011;23688;33.130;-117.188;2023-07-22T00:46:29;17.95;;;6.15;;
37847;SDS011;23688;33.130;-117.188;2023-07-22T00:48:56;18.02;;;6.00;;
37847;SDS011;23688;33.130;-117.188;2023-07-22T00:51:22;16.98;;;6.15;;
37847;SDS011;23688;33.130;-117.188;2023-07-22T00:53:48;17.08;;;6.72;;
37847;SDS011;23688;33.130;-117.188;2023-07-22T00:56:15;17.83;;;7.57;;
37847;SDS011;23688;33.130;-117.188;2023-07-22T00:58:41;16.63;;;6.32;;
37847;SDS011;23688;33.130;-117.188;2023-07-22T01:01:08;19.92;;;6.80;;
37847;SDS011;23688;33.130;-117.188;2023-07-22T01:03:34;15.88;;;6.10;;
37847;SDS011;23688;33.130;-117.188;2023-07-22T01:06:01;18.30;;;5.93;;
37847;SDS011;23688;33.130;-117.188;2023-07-22T01:08:28;17.17;;;6.57;;
37847;SDS011;23688;33.130;-117.188;2023-07-22T01:10:54;22.10;;;6.80;;
37847;SDS011;23688;33.130;-117.188;2023-07-22T01:13:21;21.52;;;7.10;;
37847;SDS011;23688;33.130;-117.188;2023-07-22T01:15:47;13.77;;;6.40;;
37847;SDS011;23688;33.130;-117.188;2023-07-22T01:18:14;17.13;;;6.50;;
37847;SDS011;23688;33.130;-117.188;2023-07-22T01:20:40;16.63;;;6.85;;
37847;SDS011;23688;33.130;-117.188;2023-07-22T01:23:08;15.55;;;6.13;;
37847;SDS011;23688;33.130;-117.188;2023-07-22T01:25:36;22.92;;;7.65;;
37847;SDS011;23688;33.130;-117.188;2023-07-22T01:28:03;19.73;;;7.65;;
37847;SDS011;23688;33.130;-117.188;2023-07-22T01:30:35;19.60;;;7.85;;
37847;SDS011;23688;33.130;-117.188;2023-07-22T01:33:02;21.30;;;7.43;;
37847;SDS011;23688;33.130;-117.188;2023-07-22T01:35:28;22.48;;;8.13;;
37847;SDS011;23688;33.130;-117.188;2023-07-22T01:37:54;18.63;;;8.50;;
37847;SDS011;23688;33.130;-117.188;2023-07-22T01:40:24;16.02;;;7.45;;
37847;SDS011;23688;33.130;-117.188;2023-07-22T01:42:51;19.75;;;7.88;;
37847;SDS011;23688;33.130;-117.188;2023-07-22T01:45:17;24.08;;;9.07;;
37847;SDS011;23688;33.130;-117.188;2023-07-22T01:47:44;23.45;;;8.38;;
37847;SDS011;23688;33.130;-117.188;2023-07-22T01:50:10;23.70;;;8.80;;
37847;SDS011;23688;33.130;-117.188;2023-07-22T01:52:39;17.20;;;8.20;;
37847;SDS011;23688;33.130;-117.188;2023-07-22T01:55:06;27.15;;;9.52;;
37847;SDS011;23688;33.130;-117.188;2023-07-22T01:57:36;21.80;;;8.95;;
37847;SDS011;23688;33.130;-117.188;2023-07-22T02:00:02;23.48;;;9.38;;
37847;SDS011;23688;33.130;-117.188;2023-07-22T02:02:30;19.98;;;8.77;;
37847;SDS011;23688;33.130;-117.188;2023-07-22T02:04:57;24.83;;;8.63;;
37847;SDS011;23688;33.130;-117.188;2023-07-22T02:07:23;23.85;;;10.10;;
37847;SDS011;23688;33.130;-117.188;2023-07-22T02:09:51;24.50;;;9.38;;
37847;SDS011;23688;33.130;-117.188;2023-07-22T02:12:18;18.90;;;8.15;;
37847;SDS011;23688;33.130;-117.188;2023-07-22T02:14:45;22.02;;;7.53;;
37847;SDS011;23688;33.130;-117.188;2023-07-22T02:17:12;20.00;;;7.60;;
37847;SDS011;23688;33.130;-117.188;2023-07-22T02:19:38;21.25;;;8.27;;
37847;SDS011;23688;33.130;-117.188;2023-07-22T02:22:04;22.70;;;8.43;;
37847;SDS011;23688;33.130;-117.188;2023-07-22T02:24:31;24.38;;;8.25;;
37847;SDS011;23688;33.130;-117.188;2023-07-22T02:26:59;20.98;;;8.73;;
37847;SDS011;23688;33.130;-117.188;2023-07-22T02:29:26;28.85;;;9.80;;
37847;SDS011;23688;33.130;-117.188;2023-07-22T02:31:52;21.77;;;7.72;;
37847;SDS011;23688;33.130;-117.188;2023-07-22T02:34:19;21.75;;;8.63;;
37847;SDS011;23688;33.130;-117.188;2023-07-22T02:36:45;23.83;;;9.02;;
37847;SDS011;23688;33.130;-117.188;2023-07-22T02:39:11;26.35;;;8.73;;
37847;SDS011;23688;33.130;-117.188;2023-07-22T02:41:38;21.27;;;9.13;;
37847;SDS011;23688;33.130;-117.188;2023-07-22T02:44:05;19.77;;;8.43;;
37847;SDS011;23688;33.130;-117.188;2023-07-22T02:46:31;23.52;;;8.88;;
37847;SDS011;23688;33.130;-117.188;2023-07-22T02:48:58;31.65;;;9.05;;
37847;SDS011;23688;33.130;-117.188;2023-07-22T02:51:24;27.33;;;9.63;;
37847;SDS011;23688;33.130;-117.188;2023-07-22T02:53:51;29.40;;;9.38;;
37847;SDS011;23688;33.130;-117.188;2023-07-22T02:56:17;22.98;;;8.77;;
37847;SDS011;23688;33.130;-117.188;2023-07-22T02:58:55;27.92;;;9.60;;
37847;SDS011;23688;33.130;-117.188;2023-07-22T03:01:22;24.50;;;8.48;;
37847;SDS011;23688;33.130;-117.188;2023-07-22T03:03:49;21.58;;;8.50;;
37847;SDS011;23688;33.130;-117.188;2023-07-22T03:06:19;25.98;;;9.20;;
37847;SDS011;23688;33.130;-117.188;2023-07-22T03:08:48;16.10;;;8.13;;
37847;SDS011;23688;33.130;-117.188;2023-07-22T03:11:18;25.02;;;8.80;;
37847;SDS011;23688;33.130;-117.188;2023-07-22T03:13:44;21.27;;;8.55;;
37847;SDS011;23688;33.130;-117.188;2023-07-22T03:16:14;29.35;;;8.48;;
37847;SDS011;23688;33.130;-117.188;2023-07-22T03:18:43;25.95;;;8.98;;
37847;SDS011;23688;33.130;-117.188;2023-07-22T03:21:12;25.75;;;9.48;;
37847;SDS011;23688;33.130;-117.188;2023-07-22T03:23:39;21.60;;;8.43;;
37847;SDS011;23688;33.130;-117.188;2023-07-22T03:26:05;24.95;;;10.05;;
37847;SDS011;23688;33.130;-117.188;2023-07-22T03:28:32;26.10;;;10.15;;
37847;SDS011;23688;33.130;-117.188;2023-07-22T03:31:00;36.00;;;9.43;;
37847;SDS011;23688;33.130;-117.188;2023-07-22T03:33:27;21.27;;;8.60;;
37847;SDS011;23688;33.130;-117.188;2023-07-22T03:35:54;25.92;;;9.07;;
37847;SDS011;23688;33.130;-117.188;2023-07-22T03:38:20;28.77;;;9.65;;
37847;SDS011;23688;33.130;-117.188;2023-07-22T03:40:47;27.13;;;9.77;;
37847;SDS011;23688;33.130;-117.188;2023-07-22T03:43:13;30.27;;;9.52;;
37847;SDS011;23688;33.130;-117.188;2023-07-22T03:45:39;31.55;;;9.63;;
37847;SDS011;23688;33.130;-117.188;2023-07-22T03:48:06;32.70;;;10.98;;
37847;SDS011;23688;33.130;-117.188;2023-07-22T03:50:35;24.88;;;9.15;;
37847;SDS011;23688;33.130;-117.188;2023-07-22T03:53:02;25.13;;;9.82;;
37847;SDS011;23688;33.130;-117.188;2023-07-22T03:55:30;25.80;;;8.98;;
37847;SDS011;23688;33.130;-117.188;2023-07-22T03:57:58;23.90;;;10.70;;
37847;SDS011;23688;33.130;-117.188;2023-07-22T04:00:28;25.40;;;9.65;;
37847;SDS011;23688;33.130;-117.188;2023-07-22T04:02:54;18.67;;;8.55;;
37847;SDS011;23688;33.130;-117.188;2023-07-22T04:05:21;27.52;;;9.13;;
37847;SDS011;23688;33.130;-117.188;2023-07-22T04:07:47;22.83;;;8.65;;
37847;SDS011;23688;33.130;-117.188;2023-07-22T04:10:13;31.65;;;8.73;;
37847;SDS011;23688;33.130;-117.188;2023-07-22T04:12:40;21.98;;;8.68;;
37847;SDS011;23688;33.130;-117.188;2023-07-22T04:15:06;20.33;;;8.70;;
37847;SDS011;23688;33.130;-117.188;2023-07-22T04:17:33;29.02;;;10.25;;
37847;SDS011;23688;33.130;-117.188;2023-07-22T04:19:59;23.98;;;9.95;;
37847;SDS011;23688;33.130;-117.188;2023-07-22T04:22:26;23.40;;;9.05;;
37847;SDS011;23688;33.130;-117.188;2023-07-22T04:24:52;28.67;;;9.75;;
37847;SDS011;23688;33.130;-117.188;2023-07-22T04:27:19;25.40;;;9.45;;
37847;SDS011;23688;33.130;-117.188;2023-07-22T04:29:45;25.63;;;9.60;;
37847;SDS011;23688;33.130;-117.188;2023-07-22T04:32:12;21.08;;;9.50;;
37847;SDS011;23688;33.130;-117.188;2023-07-22T04:34:38;33.33;;;9.55;;
37847;SDS011;23688;33.130;-117.188;2023-07-22T04:37:04;34.55;;;11.18;;
37847;SDS011;23688;33.130;-117.188;2023-07-22T04:39:33;31.08;;;10.82;;
37847;SDS011;23688;33.130;-117.188;2023-07-22T04:42:00;31.45;;;10.65;;
37847;SDS011;23688;33.130;-117.188;2023-07-22T04:44:27;25.77;;;9.38;;
37847;SDS011;23688;33.130;-117.188;2023-07-22T04:46:53;27.77;;;9.82;;
37847;SDS011;23688;33.130;-117.188;2023-07-22T04:49:22;37.15;;;11.00;;
37847;SDS011;23688;33.130;-117.188;2023-07-22T04:51:51;25.60;;;9.60;;
37847;SDS011;23688;33.130;-117.188;2023-07-22T04:56:43;25.85;;;9.57;;
37847;SDS011;23688;33.130;-117.188;2023-07-22T04:59:10;22.10;;;9.65;;
37847;SDS011;23688;33.130;-117.188;2023-07-22T05:01:36;29.77;;;9.48;;
37847;SDS011;23688;33.130;-117.188;2023-07-22T05:04:02;25.40;;;10.18;;
37847;SDS011;23688;33.130;-117.188;2023-07-22T05:06:30;30.15;;;11.18;;
37847;SDS011;23688;33.130;-117.188;2023-07-22T05:08:56;27.48;;;9.80;;
37847;SDS011;23688;33.130;-117.188;2023-07-22T05:11:25;26.73;;;10.30;;
37847;SDS011;23688;33.130;-117.188;2023-07-22T05:13:51;30.02;;;9.88;;
37847;SDS011;23688;33.130;-117.188;2023-07-22T05:16:20;31.75;;;9.85;;
37847;SDS011;23688;33.130;-117.188;2023-07-22T05:18:47;25.92;;;11.15;;
37847;SDS011;23688;33.130;-117.188;2023-07-22T05:21:13;24.58;;;9.82;;
37847;SDS011;23688;33.130;-117.188;2023-07-22T05:23:39;28.27;;;9.45;;
37847;SDS011;23688;33.130;-117.188;2023-07-22T05:26:08;30.55;;;10.38;;
37847;SDS011;23688;33.130;-117.188;2023-07-22T05:28:35;27.88;;;9.65;;
37847;SDS011;23688;33.130;-117.188;2023-07-22T05:31:06;35.10;;;10.52;;
37847;SDS011;23688;33.130;-117.188;2023-07-22T05:33:33;36.25;;;10.57;;
37847;SDS011;23688;33.130;-117.188;2023-07-22T05:36:00;36.45;;;11.88;;
37847;SDS011;23688;33.130;-117.188;2023-07-22T05:38:29;32.75;;;10.43;;
37847;SDS011;23688;33.130;-117.188;2023-07-22T05:40:56;30.85;;;10.32;;
37847;SDS011;23688;33.130;-117.188;2023-07-22T05:43:23;29.08;;;9.68;;
37847;SDS011;23688;33.130;-117.188;2023-07-22T05:45:49;31.50;;;11.00;;
37847;SDS011;23688;33.130;-117.188;2023-07-22T05:48:15;27.55;;;9.82;;
37847;SDS011;23688;33.130;-117.188;2023-07-22T05:50:42;29.92;;;10.18;;
37847;SDS011;23688;33.130;-117.188;2023-07-22T05:53:11;34.65;;;10.10;;
37847;SDS011;23688;33.130;-117.188;2023-07-22T05:55:41;27.73;;;10.40;;
37847;SDS011;23688;33.130;-117.188;2023-07-22T05:58:07;34.13;;;11.80;;
37847;SDS011;23688;33.130;-117.188;2023-07-22T06:00:42;31.10;;;11.25;;
37847;SDS011;23688;33.130;-117.188;2023-07-22T06:03:09;36.05;;;13.32;;
37847;SDS011;23688;33.130;-117.188;2023-07-22T06:05:37;30.33;;;12.45;;
37847;SDS011;23688;33.130;-117.188;2023-07-22T06:08:07;31.75;;;13.07;;
37847;SDS011;23688;33.130;-117.188;2023-07-22T06:10:33;36.88;;;12.82;;
37847;SDS011;23688;33.130;-117.188;2023-07-22T06:13:03;32.58;;;12.95;;
37847;SDS011;23688;33.130;-117.188;2023-07-22T06:15:30;31.77;;;11.63;;
37847;SDS011;23688;33.130;-117.188;2023-07-22T06:18:05;29.73;;;12.27;;
37847;SDS011;23688;33.130;-117.188;2023-07-22T06:20:34;35.85;;;13.50;;
37847;SDS011;23688;33.130;-117.188;2023-07-22T06:23:01;39.60;;;13.90;;
37847;SDS011;23688;33.130;-117.188;2023-07-22T06:25:28;34.15;;;12.93;;
37847;SDS011;23688;33.130;-117.188;2023-07-22T06:27:54;30.13;;;13.30;;
37847;SDS011;23688;33.130;-117.188;2023-07-22T06:30:21;29.42;;;12.43;;
37847;SDS011;23688;33.130;-117.188;2023-07-22T06:32:47;35.45;;;12.45;;
37847;SDS011;23688;33.130;-117.188;2023-07-22T06:35:14;35.83;;;12.25;;
37847;SDS011;23688;33.130;-117.188;2023-07-22T06:37:40;33.05;;;12.32;;
37847;SDS011;23688;33.130;-117.188;2023-07-22T06:40:07;28.50;;;12.00;;
37847;SDS011;23688;33.130;-117.188;2023-07-22T06:42:33;35.58;;;12.52;;
37847;SDS011;23688;33.130;-117.188;2023-07-22T06:44:59;31.23;;;13.13;;
37847;SDS011;23688;33.130;-117.188;2023-07-22T06:47:28;29.42;;;12.88;;
37847;SDS011;23688;33.130;-117.188;2023-07-22T06:52:20;30.98;;;11.40;;
37847;SDS011;23688;33.130;-117.188;2023-07-22T06:54:47;32.88;;;12.93;;
37847;SDS011;23688;33.130;-117.188;2023-07-22T06:57:15;29.00;;;12.43;;
37847;SDS011;23688;33.130;-117.188;2023-07-22T07:02:08;31.70;;;12.25;;
37847;SDS011;23688;33.130;-117.188;2023-07-22T07:04:34;34.63;;;12.20;;
37847;SDS011;23688;33.130;-117.188;2023-07-22T07:07:00;26.00;;;11.50;;
37847;SDS011;23688;33.130;-117.188;2023-07-22T07:09:28;32.75;;;13.77;;
37847;SDS011;23688;33.130;-117.188;2023-07-22T07:11:54;30.98;;;11.93;;
37847;SDS011;23688;33.130;-117.188;2023-07-22T07:14:23;31.88;;;12.07;;
37847;SDS011;23688;33.130;-117.188;2023-07-22T07:16:52;29.30;;;13.00;;
37847;SDS011;23688;33.130;-117.188;2023-07-22T07:19:19;23.75;;;11.00;;
37847;SDS011;23688;33.130;-117.188;2023-07-22T07:21:45;29.92;;;12.20;;
37847;SDS011;23688;33.130;-117.188;2023-07-22T07:24:11;26.52;;;11.35;;
37847;SDS011;23688;33.130;-117.188;2023-07-22T07:26:38;30.92;;;11.77;;
37847;SDS011;23688;33.130;-117.188;2023-07-22T07:29:04;21.75;;;11.25;;
37847;SDS011;23688;33.130;-117.188;2023-07-22T07:31:30;31.15;;;11.88;;
37847;SDS011;23688;33.130;-117.188;2023-07-22T07:33:57;28.95;;;11.43;;
37847;SDS011;23688;33.130;-117.188;2023-07-22T07:36:23;24.15;;;10.77;;
37847;SDS011;23688;33.130;-117.188;2023-07-22T07:38:49;29.98;;;12.02;;
37847;SDS011;23688;33.130;-117.188;2023-07-22T07:41:16;25.73;;;12.52;;
37847;SDS011;23688;33.130;-117.188;2023-07-22T07:43:42;36.97;;;14.43;;
37847;SDS011;23688;33.130;-117.188;2023-07-22T07:48:38;34.20;;;12.80;;
37847;SDS011;23688;33.130;-117.188;2023-07-22T07:51:05;32.58;;;14.00;;
37847;SDS011;23688;33.130;-117.188;2023-07-22T07:53:34;38.47;;;14.57;;
37847;SDS011;23688;33.130;-117.188;2023-07-22T07:56:00;31.77;;;12.90;;
37847;SDS011;23688;33.130;-117.188;2023-07-22T07:58:27;35.05;;;12.73;;
37847;SDS011;23688;33.130;-117.188;2023-07-22T08:00:53;33.85;;;12.38;;
37847;SDS011;23688;33.130;-117.188;2023-07-22T08:03:19;39.17;;;13.75;;
37847;SDS011;23688;33.130;-117.188;2023-07-22T08:05:46;40.17;;;14.55;;
37847;SDS011;23688;33.130;-117.188;2023-07-22T08:08:12;33.58;;;15.07;;
37847;SDS011;23688;33.130;-117.188;2023-07-22T08:10:38;46.00;;;16.75;;
37847;SDS011;23688;33.130;-117.188;2023-07-22T08:13:04;47.85;;;16.63;;
37847;SDS011;23688;33.130;-117.188;2023-07-22T08:15:31;50.00;;;17.98;;
37847;SDS011;23688;33.130;-117.188;2023-07-22T08:17:57;45.63;;;17.45;;
37847;SDS011;23688;33.130;-117.188;2023-07-22T08:20:25;49.63;;;18.50;;
37847;SDS011;23688;33.130;-117.188;2023-07-22T08:22:52;47.45;;;17.85;;
37847;SDS011;23688;33.130;-117.188;2023-07-22T08:25:18;46.28;;;19.23;;
37847;SDS011;23688;33.130;-117.188;2023-07-22T08:27:44;44.30;;;17.35;;
37847;SDS011;23688;33.130;-117.188;2023-07-22T08:30:11;56.00;;;17.80;;
37847;SDS011;23688;33.130;-117.188;2023-07-22T08:32:37;40.40;;;17.33;;
37847;SDS011;23688;33.130;-117.188;2023-07-22T08:35:03;35.75;;;16.27;;
37847;SDS011;23688;33.130;-117.188;2023-07-22T08:37:31;38.58;;;14.90;;
37847;SDS011;23688;33.130;-117.188;2023-07-22T08:39:57;34.08;;;15.07;;
37847;SDS011;23688;33.130;-117.188;2023-07-22T08:42:23;43.42;;;15.48;;
37847;SDS011;23688;33.130;-117.188;2023-07-22T08:44:55;50.67;;;16.38;;
37847;SDS011;23688;33.130;-117.188;2023-07-22T08:47:25;31.00;;;15.15;;
37847;SDS011;23688;33.130;-117.188;2023-07-22T08:49:56;35.60;;;14.65;;
37847;SDS011;23688;33.130;-117.188;2023-07-22T08:52:29;33.15;;;14.13;;
37847;SDS011;23688;33.130;-117.188;2023-07-22T08:54:56;40.03;;;14.95;;
37847;SDS011;23688;33.130;-117.188;2023-07-22T08:57:30;41.63;;;16.35;;
37847;SDS011;23688;33.130;-117.188;2023-07-22T08:59:57;37.33;;;16.33;;
37847;SDS011;23688;33.130;-117.188;2023-07-22T09:02:27;40.47;;;15.55;;
37847;SDS011;23688;33.130;-117.188;2023-07-22T09:04:54;36.60;;;15.38;;
37847;SDS011;23688;33.130;-117.188;2023-07-22T09:07:24;36.92;;;15.23;;
37847;SDS011;23688;33.130;-117.188;2023-07-22T09:09:52;37.15;;;14.85;;
37847;SDS011;23688;33.130;-117.188;2023-07-22T09:12:20;30.77;;;14.80;;
37847;SDS011;23688;33.130;-117.188;2023-07-22T09:14:49;36.47;;;14.88;;
37847;SDS011;23688;33.130;-117.188;2023-07-22T09:17:16;32.55;;;14.07;;
37847;SDS011;23688;33.130;-117.188;2023-07-22T09:19:43;28.80;;;13.40;;
37847;SDS011;23688;33.130;-117.188;2023-07-22T09:22:10;31.38;;;13.75;;
37847;SDS011;23688;33.130;-117.188;2023-07-22T09:24:36;30.83;;;14.10;;
37847;SDS011;23688;33.130;-117.188;2023-07-22T09:27:02;28.42;;;13.60;;
37847;SDS011;23688;33.130;-117.188;2023-07-22T09:29:33;28.40;;;13.38;;
37847;SDS011;23688;33.130;-117.188;2023-07-22T09:32:00;32.67;;;14.43;;
37847;SDS011;23688;33.130;-117.188;2023-07-22T09:34:28;28.52;;;13.90;;
37847;SDS011;23688;33.130;-117.188;2023-07-22T09:36:58;30.50;;;12.80;;
37847;SDS011;23688;33.130;-117.188;2023-07-22T09:39:26;30.00;;;13.85;;
37847;SDS011;23688;33.130;-117.188;2023-07-22T09:41:55;34.42;;;14.52;;
37847;SDS011;23688;33.130;-117.188;2023-07-22T09:44:30;39.03;;;14.52;;
37847;SDS011;23688;33.130;-117.188;2023-07-22T09:47:00;32.28;;;13.45;;
37847;SDS011;23688;33.130;-117.188;2023-07-22T09:49:33;30.55;;;14.13;;
37847;SDS011;23688;33.130;-117.188;2023-07-22T09:52:08;25.00;;;13.52;;
37847;SDS011;23688;33.130;-117.188;2023-07-22T09:54:38;32.13;;;14.15;;
37847;SDS011;23688;33.130;-117.188;2023-07-22T09:57:13;29.13;;;14.40;;
37847;SDS011;23688;33.130;-117.188;2023-07-22T09:59:40;32.70;;;16.40;;
37847;SDS011;23688;33.130;-117.188;2023-07-22T10:02:07;29.42;;;14.55;;
37847;SDS011;23688;33.130;-117.188;2023-07-22T10:04:36;38.13;;;16.95;;
37847;SDS011;23688;33.130;-117.188;2023-07-22T10:07:04;33.80;;;15.93;;
37847;SDS011;23688;33.130;-117.188;2023-07-22T10:09:33;34.97;;;16.17;;
37847;SDS011;23688;33.130;-117.188;2023-07-22T10:12:02;37.58;;;15.88;;
37847;SDS011;23688;33.130;-117.188;2023-07-22T10:14:29;30.65;;;14.43;;
37847;SDS011;23688;33.130;-117.188;2023-07-22T10:16:55;34.67;;;14.30;;
37847;SDS011;23688;33.130;-117.188;2023-07-22T10:19:22;34.97;;;14.77;;
37847;SDS011;23688;33.130;-117.188;2023-07-22T10:21:51;29.65;;;16.25;;
37847;SDS011;23688;33.130;-117.188;2023-07-22T10:24:18;34.05;;;15.55;;
37847;SDS011;23688;33.130;-117.188;2023-07-22T10:26:48;48.38;;;19.30;;
37847;SDS011;23688;33.130;-117.188;2023-07-22T10:29:16;33.90;;;17.63;;
37847;SDS011;23688;33.130;-117.188;2023-07-22T10:31:45;40.05;;;19.38;;
37847;SDS011;23688;33.130;-117.188;2023-07-22T10:34:11;49.70;;;20.77;;
37847;SDS011;23688;33.130;-117.188;2023-07-22T10:36:38;42.83;;;19.67;;
37847;SDS011;23688;33.130;-117.188;2023-07-22T10:39:04;36.22;;;18.33;;
37847;SDS011;23688;33.130;-117.188;2023-07-22T10:41:32;37.95;;;20.35;;
37847;SDS011;23688;33.130;-117.188;2023-07-22T10:44:06;34.47;;;18.15;;
37847;SDS011;23688;33.130;-117.188;2023-07-22T10:46:36;45.75;;;19.17;;
37847;SDS011;23688;33.130;-117.188;2023-07-22T10:49:11;37.67;;;18.50;;
37847;SDS011;23688;33.130;-117.188;2023-07-22T10:51:39;41.38;;;18.83;;
37847;SDS011;23688;33.130;-117.188;2023-07-22T10:54:12;41.55;;;19.33;;
37847;SDS011;23688;33.130;-117.188;2023-07-22T10:56:45;39.20;;;17.17;;
37847;SDS011;23688;33.130;-117.188;2023-07-22T10:59:26;39.35;;;19.83;;
37847;SDS011;23688;33.130;-117.188;2023-07-22T11:01:53;43.95;;;20.13;;
37847;SDS011;23688;33.130;-117.188;2023-07-22T11:06:56;46.60;;;19.85;;
37847;SDS011;23688;33.130;-117.188;2023-07-22T11:12:00;38.67;;;20.35;;
37847;SDS011;23688;33.130;-117.188;2023-07-22T11:17:02;43.92;;;20.25;;
37847;SDS011;23688;33.130;-117.188;2023-07-22T11:19:31;47.45;;;21.17;;
37847;SDS011;23688;33.130;-117.188;2023-07-22T11:21:58;44.35;;;21.65;;
37847;SDS011;23688;33.130;-117.188;2023-07-22T11:24:26;38.17;;;19.20;;
37847;SDS011;23688;33.130;-117.188;2023-07-22T11:26:52;35.67;;;17.30;;
37847;SDS011;23688;33.130;-117.188;2023-07-22T11:29:19;43.75;;;21.67;;
37847;SDS011;23688;33.130;-117.188;2023-07-22T11:31:48;38.85;;;18.42;;
37847;SDS011;23688;33.130;-117.188;2023-07-22T11:34:20;36.92;;;18.70;;
37847;SDS011;23688;33.130;-117.188;2023-07-22T11:36:48;38.30;;;19.65;;
37847;SDS011;23688;33.130;-117.188;2023-07-22T11:39:23;42.53;;;19.35;;
37847;SDS011;23688;33.130;-117.188;2023-07-22T11:41:51;39.53;;;18.63;;
37847;SDS011;23688;33.130;-117.188;2023-07-22T11:44:18;43.63;;;19.17;;
37847;SDS011;23688;33.130;-117.188;2023-07-22T11:46:58;42.72;;;20.80;;
37847;SDS011;23688;33.130;-117.188;2023-07-22T11:49:40;40.30;;;21.70;;
37847;SDS011;23688;33.130;-117.188;2023-07-22T11:52:08;47.08;;;22.98;;
37847;SDS011;23688;33.130;-117.188;2023-07-22T11:54:39;47.83;;;22.77;;
37847;SDS011;23688;33.130;-117.188;2023-07-22T11:57:10;52.15;;;22.88;;
37847;SDS011;23688;33.130;-117.188;2023-07-22T11:59:39;49.25;;;23.73;;
37847;SDS011;23688;33.130;-117.188;2023-07-22T12:02:18;45.30;;;22.42;;
37847;SDS011;23688;33.130;-117.188;2023-07-22T12:04:59;43.15;;;21.73;;
37847;SDS011;23688;33.130;-117.188;2023-07-22T12:07:28;39.10;;;20.27;;
37847;SDS011;23688;33.130;-117.188;2023-07-22T12:12:39;43.13;;;20.05;;
37847;SDS011;23688;33.130;-117.188;2023-07-22T12:15:17;43.75;;;21.08;;
37847;SDS011;23688;33.130;-117.188;2023-07-22T12:17:46;42.38;;;20.73;;
37847;SDS011;23688;33.130;-117.188;2023-07-22T12:20:26;33.47;;;19.55;;
37847;SDS011;23688;33.130;-117.188;2023-07-22T12:22:54;40.42;;;19.88;;
37847;SDS011;23688;33.130;-117.188;2023-07-22T12:25:21;47.80;;;24.00;;
37847;SDS011;23688;33.130;-117.188;2023-07-22T12:27:48;48.53;;;24.88;;
37847;SDS011;23688;33.130;-117.188;2023-07-22T12:30:15;55.55;;;24.48;;
37847;SDS011;23688;33.130;-117.188;2023-07-22T12:32:45;51.97;;;24.15;;
37847;SDS011;23688;33.130;-117.188;2023-07-22T12:35:12;42.47;;;22.95;;
37847;SDS011;23688;33.130;-117.188;2023-07-22T12:37:39;50.55;;;24.50;;
37847;SDS011;23688;33.130;-117.188;2023-07-22T12:40:05;42.92;;;22.10;;
37847;SDS011;23688;33.130;-117.188;2023-07-22T12:42:34;42.35;;;22.75;;
37847;SDS011;23688;33.130;-117.188;2023-07-22T12:45:01;48.03;;;21.42;;
37847;SDS011;23688;33.130;-117.188;2023-07-22T12:47:28;43.35;;;21.45;;
37847;SDS011;23688;33.130;-117.188;2023-07-22T12:49:54;51.33;;;21.60;;
37847;SDS011;23688;33.130;-117.188;2023-07-22T12:52:21;40.80;;;21.08;;
37847;SDS011;23688;33.130;-117.188;2023-07-22T12:54:47;35.10;;;18.98;;
37847;SDS011;23688;33.130;-117.188;2023-07-22T12:57:13;35.92;;;21.80;;
37847;SDS011;23688;33.130;-117.188;2023-07-22T12:59:40;46.85;;;23.58;;
37847;SDS011;23688;33.130;-117.188;2023-07-22T13:02:06;45.65;;;20.98;;
37847;SDS011;23688;33.130;-117.188;2023-07-22T13:04:32;38.70;;;19.45;;
37847;SDS011;23688;33.130;-117.188;2023-07-22T13:06:59;41.13;;;21.08;;
37847;SDS011;23688;33.130;-117.188;2023-07-22T13:09:26;41.47;;;21.67;;
37847;SDS011;23688;33.130;-117.188;2023-07-22T13:11:53;53.63;;;24.13;;
37847;SDS011;23688;33.130;-117.188;2023-07-22T13:14:19;49.58;;;25.33;;
37847;SDS011;23688;33.130;-117.188;2023-07-22T13:16:46;48.67;;;22.83;;
37847;SDS011;23688;33.130;-117.188;2023-07-22T13:19:12;48.75;;;24.35;;
37847;SDS011;23688;33.130;-117.188;2023-07-22T13:21:38;41.95;;;22.23;;
37847;SDS011;23688;33.130;-117.188;2023-07-22T13:24:05;39.60;;;22.55;;
37847;SDS011;23688;33.130;-117.188;2023-07-22T13:26:31;56.30;;;24.90;;
37847;SDS011;23688;33.130;-117.188;2023-07-22T13:28:58;47.78;;;22.95;;
37847;SDS011;23688;33.130;-117.188;2023-07-22T13:31:24;42.65;;;21.92;;
37847;SDS011;23688;33.130;-117.188;2023-07-22T13:33:51;45.78;;;24.42;;
37847;SDS011;23688;33.130;-117.188;2023-07-22T13:36:17;51.65;;;22.55;;
37847;SDS011;23688;33.130;-117.188;2023-07-22T13:38:44;41.30;;;21.98;;
37847;SDS011;23688;33.130;-117.188;2023-07-22T13:41:10;39.88;;;21.13;;
37847;SDS011;23688;33.130;-117.188;2023-07-22T13:43:36;36.10;;;21.45;;
37847;SDS011;23688;33.130;-117.188;2023-07-22T13:46:03;35.08;;;19.63;;
37847;SDS011;23688;33.130;-117.188;2023-07-22T13:48:29;40.65;;;22.15;;
37847;SDS011;23688;33.130;-117.188;2023-07-22T13:50:55;49.03;;;22.83;;
37847;SDS011;23688;33.130;-117.188;2023-07-22T13:53:25;47.15;;;22.33;;
37847;SDS011;23688;33.130;-117.188;2023-07-22T13:55:51;46.67;;;21.55;;
37847;SDS011;23688;33.130;-117.188;2023-07-22T13:58:20;36.20;;;21.45;;
37847;SDS011;23688;33.130;-117.188;2023-07-22T14:00:47;41.63;;;21.10;;
37847;SDS011;23688;33.130;-117.188;2023-07-22T14:03:13;38.72;;;20.55;;
37847;SDS011;23688;33.130;-117.188;2023-07-22T14:05:40;42.72;;;21.23;;
37847;SDS011;23688;33.130;-117.188;2023-07-22T14:08:07;41.80;;;23.08;;
37847;SDS011;23688;33.130;-117.188;2023-07-22T14:10:33;42.28;;;21.50;;
37847;SDS011;23688;33.130;-117.188;2023-07-22T14:12:59;37.92;;;20.55;;
37847;SDS011;23688;33.130;-117.188;2023-07-22T14:15:26;37.97;;;21.20;;